Time;durP1;ratioP1;P1;durP2;ratioP2;P2;SDS_P1;SDS_P2;PMS_P1;PMS_P2;Temp;Humidity;BMP_temperature;BMP_pressure;BME280_temperature;BME280_humidity;BME280_pressure;Samples;Min_cycle;Max_cycle;Signal;HPM_P1;HPM_P2
2022/10/19 05:44:01;;;;;;;19.33;7.35;;;14.30;99.90;;;;;;11741599;23;20059;-78
2022/10/19 05:49:03;;;;;;;13.27;6.80;;;14.30;99.90;;;;;;10244452;29;20056;-77
2022/10/19 05:54:06;;;;;;;20.15;12.75;;;14.20;99.90;;;;;;10227850;29;20051;-75
2022/10/19 05:59:15;;;;;;;13.90;9.23;;;14.30;99.90;;;;;;10259514;29;20094;-76
2022/10/19 06:04:17;;;;;;;14.00;7.05;;;14.30;99.90;;;;;;10238766;29;20089;-75
2022/10/19 06:09:19;;;;;;;10.93;7.15;;;14.20;99.90;;;;;;10221278;29;20473;-76
2022/10/19 06:14:24;;;;;;;12.77;6.90;;;14.10;99.90;;;;;;10240771;29;20043;-75
2022/10/19 06:19:26;;;;;;;10.93;6.68;;;14.20;99.90;;;;;;10218259;29;20048;-73
2022/10/19 06:24:28;;;;;;;12.80;7.60;;;14.20;99.90;;;;;;10256539;29;20051;-75
2022/10/19 06:29:31;;;;;;;10.23;6.72;;;14.20;99.90;;;;;;10255577;28;20461;-76
2022/10/19 06:34:33;;;;;;;9.75;6.70;;;14.20;99.90;;;;;;10242854;29;20051;-74
2022/10/19 06:39:35;;;;;;;9.52;6.20;;;14.30;99.90;;;;;;10210715;29;20051;-75
2022/10/19 06:44:38;;;;;;;8.65;6.00;;;14.40;99.90;;;;;;10220135;29;20051;-76
2022/10/19 06:49:40;;;;;;;9.60;6.47;;;14.50;99.90;;;;;;10206692;29;20063;-76
2022/10/19 06:54:42;;;;;;;9.35;5.78;;;14.50;99.90;;;;;;10223767;29;20051;-75
2022/10/19 06:59:45;;;;;;;8.27;5.25;;;14.50;99.90;;;;;;10223029;29;20463;-76
2022/10/19 07:04:47;;;;;;;7.75;5.30;;;14.60;99.90;;;;;;10231875;29;20716;-73
2022/10/19 07:09:49;;;;;;;8.77;5.65;;;14.60;99.90;;;;;;10256837;29;20464;-76
2022/10/19 07:14:54;;;;;;;9.18;5.57;;;14.70;99.90;;;;;;10232402;29;20048;-76
2022/10/19 07:19:56;;;;;;;8.95;6.40;;;14.70;99.90;;;;;;10257234;29;20056;-74
2022/10/19 07:24:58;;;;;;;9.77;6.30;;;14.70;99.90;;;;;;10238860;29;20460;-73
2022/10/19 07:30:01;;;;;;;8.93;5.70;;;14.70;99.90;;;;;;10218514;29;20047;-74
2022/10/19 07:35:03;;;;;;;15.98;10.57;;;14.80;99.90;;;;;;10225289;29;20052;-74
2022/10/19 07:40:07;;;;;;;22.88;13.55;;;14.80;99.90;;;;;;10221242;29;20520;-74
2022/10/19 07:45:11;;;;;;;16.02;10.55;;;14.90;99.90;;;;;;10236503;28;20063;-73
2022/10/19 07:50:12;;;;;;;12.25;6.97;;;14.90;99.90;;;;;;10242280;29;20051;-76
2022/10/19 07:55:14;;;;;;;9.95;6.78;;;14.80;99.90;;;;;;10235825;29;20102;-76
2022/10/19 08:00:18;;;;;;;13.10;7.28;;;14.80;99.90;;;;;;10239508;29;20055;-76
2022/10/19 08:05:20;;;;;;;13.88;7.50;;;14.90;99.90;;;;;;10210185;29;20472;-77
2022/10/19 08:10:22;;;;;;;15.65;8.52;;;14.90;99.90;;;;;;10245057;29;20456;-76
2022/10/19 08:15:27;;;;;;;15.10;8.32;;;14.90;99.90;;;;;;10231473;29;20134;-77
2022/10/19 08:20:29;;;;;;;12.77;7.75;;;15.00;99.90;;;;;;10207944;29;20493;-77
2022/10/19 08:25:31;;;;;;;13.38;8.32;;;15.10;99.90;;;;;;10208975;29;20079;-79
2022/10/19 08:30:36;;;;;;;13.93;8.30;;;15.20;99.90;;;;;;10210193;29;20135;-77
2022/10/19 08:35:38;;;;;;;14.68;8.88;;;15.30;99.90;;;;;;10201266;29;20139;-78
2022/10/19 08:40:40;;;;;;;12.27;7.60;;;15.40;99.90;;;;;;10209831;29;20473;-77
2022/10/19 08:45:47;;;;;;;13.05;8.38;;;15.40;99.90;;;;;;10215208;29;20085;-76
2022/10/19 08:50:50;;;;;;;14.68;8.55;;;15.50;99.90;;;;;;10214123;29;20051;-77
2022/10/19 08:56:07;;;;;;;20.10;8.95;;;15.50;99.90;;;;;;10211637;29;20086;-76
2022/10/19 09:01:16;;;;;;;14.07;9.18;;;15.40;99.90;;;;;;10229742;29;20055;-77
2022/10/19 09:06:24;;;;;;;14.50;9.50;;;15.50;99.90;;;;;;10228790;29;20044;-77
2022/10/19 09:11:31;;;;;;;15.02;8.95;;;15.50;99.90;;;;;;10210840;29;20134;-77
2022/10/19 09:16:34;;;;;;;15.90;9.15;;;15.60;99.90;;;;;;10212348;29;20512;-77
2022/10/19 09:21:45;;;;;;;14.43;8.48;;;15.80;99.90;;;;;;10213339;29;20076;-76
2022/10/19 09:26:53;;;;;;;14.38;8.90;;;15.90;99.90;;;;;;10198113;29;20115;-78
2022/10/19 09:31:59;;;;;;;13.53;9.23;;;15.90;99.90;;;;;;10213314;29;20048;-78
2022/10/19 09:37:03;;;;;;;12.55;8.00;;;16.10;99.90;;;;;;10219645;29;20052;-76
2022/10/19 09:42:10;;;;;;;11.65;7.85;;;16.10;99.90;;;;;;10240821;29;20047;-76
2022/10/19 09:47:37;;;;;;;11.82;7.80;;;16.30;99.90;;;;;;10221198;29;20056;-77
2022/10/19 09:52:41;;;;;;;13.82;8.10;;;16.30;99.90;;;;;;10213415;29;20104;-76
2022/10/19 09:57:44;;;;;;;11.23;7.40;;;16.30;99.90;;;;;;10212928;29;20525;-78
2022/10/19 10:02:52;;;;;;;10.13;7.13;;;16.40;99.90;;;;;;10212879;29;20611;-78
2022/10/19 10:07:55;;;;;;;11.27;6.55;;;16.60;99.90;;;;;;10217745;29;20059;-79
2022/10/19 10:12:59;;;;;;;10.20;6.57;;;16.40;99.90;;;;;;10219516;29;20490;-77
2022/10/19 10:18:03;;;;;;;12.55;7.45;;;16.60;99.90;;;;;;10219644;29;20421;-76
2022/10/19 10:23:07;;;;;;;10.10;7.22;;;16.60;99.90;;;;;;10220994;29;20048;-77
2022/10/19 10:28:20;;;;;;;11.05;6.35;;;16.70;99.90;;;;;;10220325;29;20098;-77
2022/10/19 10:33:27;;;;;;;19.75;11.93;;;16.90;99.90;;;;;;10223790;29;20063;-76
2022/10/19 10:38:33;;;;;;;10.73;6.95;;;16.90;99.90;;;;;;10221403;29;20082;-77
2022/10/19 10:43:48;;;;;;;11.57;7.07;;;17.00;99.90;;;;;;10223296;29;20052;-77
2022/10/19 10:48:57;;;;;;;12.43;6.15;;;17.00;99.90;;;;;;10217643;29;20052;-78
2022/10/19 10:54:16;;;;;;;9.45;6.57;;;17.00;99.90;;;;;;10218052;29;20043;-77
2022/10/19 10:59:24;;;;;;;11.63;7.15;;;17.10;99.90;;;;;;10217541;29;20051;-76
2022/10/19 11:04:33;;;;;;;11.93;6.70;;;17.10;99.90;;;;;;10218153;29;20115;-78
2022/10/19 11:09:38;;;;;;;7.65;4.97;;;17.10;99.90;;;;;;10217818;29;20047;-76
2022/10/19 11:14:48;;;;;;;8.85;5.13;;;17.30;99.90;;;;;;10217627;29;20138;-77
2022/10/19 11:19:52;;;;;;;7.32;4.53;;;17.10;99.90;;;;;;10217054;29;20078;-77
2022/10/19 11:25:29;;;;;;;6.10;4.00;;;17.30;99.90;;;;;;10217489;29;20050;-78
2022/10/19 11:30:36;;;;;;;5.82;4.15;;;17.40;99.90;;;;;;10216988;29;20051;-77
2022/10/19 11:35:51;;;;;;;5.35;3.72;;;17.40;99.90;;;;;;10216902;29;20052;-78
2022/10/19 11:41:10;;;;;;;5.43;3.50;;;17.40;99.90;;;;;;10216225;29;20128;-76
2022/10/19 11:46:21;;;;;;;6.82;4.35;;;17.60;99.90;;;;;;10216255;29;20055;-76
2022/10/19 11:51:34;;;;;;;7.32;5.13;;;17.60;99.90;;;;;;10215930;29;20551;-77
2022/10/19 11:56:43;;;;;;;8.30;5.28;;;17.50;99.90;;;;;;10215664;29;20481;-75
2022/10/19 12:01:57;;;;;;;9.93;6.28;;;17.50;99.90;;;;;;10215171;29;20559;-78
2022/10/19 12:07:20;;;;;;;8.70;5.85;;;17.50;99.90;;;;;;10226064;29;20075;-77
2022/10/19 12:12:30;;;;;;;10.60;7.03;;;17.70;99.90;;;;;;10217915;29;20456;-78
2022/10/19 12:17:36;;;;;;;10.82;7.22;;;17.80;99.90;;;;;;10208683;29;20052;-76
2022/10/19 12:22:40;;;;;;;11.88;7.35;;;17.80;99.90;;;;;;10212102;29;20040;-78
2022/10/19 12:27:44;;;;;;;12.23;6.70;;;17.80;99.90;;;;;;10240407;29;20122;-79
2022/10/19 12:33:05;;;;;;;8.13;5.75;;;17.80;99.90;;;;;;10226729;29;20069;-78
2022/10/19 12:38:19;;;;;;;9.85;7.00;;;17.90;99.90;;;;;;10209799;29;20643;-77
2022/10/19 12:43:32;;;;;;;8.50;5.88;;;17.90;99.90;;;;;;10237169;29;20075;-76
2022/10/19 12:48:38;;;;;;;7.93;5.32;;;17.80;99.90;;;;;;10208275;29;20052;-78
2022/10/19 12:53:46;;;;;;;8.35;5.20;;;17.70;99.90;;;;;;10246763;29;20051;-79
2022/10/19 12:58:55;;;;;;;;;;;17.70;99.90;;;;;;10222945;29;20120;-79
2022/10/19 13:04:11;;;;;;;7.97;5.15;;;17.80;99.90;;;;;;10226329;29;19982;-75
2022/10/19 13:09:24;;;;;;;6.38;4.55;;;17.70;99.90;;;;;;10207025;29;20091;-77
2022/10/19 13:14:44;;;;;;;5.53;3.97;;;17.70;99.90;;;;;;10225007;29;20056;-77
2022/10/19 13:19:46;;;;;;;9.18;4.30;;;17.70;99.90;;;;;;10233530;29;20098;-78
2022/10/19 13:25:32;;;;;;;6.28;4.38;;;17.70;99.90;;;;;;10247386;29;20552;-79
2022/10/19 13:31:04;;;;;;;6.93;4.55;;;17.60;99.90;;;;;;10243861;29;20734;-80
2022/10/19 13:36:07;;;;;;;9.40;5.30;;;17.60;99.90;;;;;;10242716;29;20067;-77
2022/10/19 13:41:15;;;;;;;14.30;5.15;;;17.60;99.90;;;;;;10239243;28;20106;-79
2022/10/19 13:46:20;;;;;;;10.90;5.77;;;17.50;99.90;;;;;;10256990;29;20563;-80
2022/10/19 13:51:31;;;;;;;9.18;4.95;;;17.60;99.90;;;;;;10236749;29;20067;-80
2022/10/19 13:57:03;;;;;;;9.05;5.10;;;17.70;99.90;;;;;;10277212;29;20047;-77
2022/10/19 14:02:56;;;;;;;9.38;5.05;;;17.70;99.90;;;;;;10258771;29;20075;-77
2022/10/19 14:08:15;;;;;;;7.45;5.30;;;17.80;99.90;;;;;;10248603;29;20055;-78
2022/10/19 14:13:21;;;;;;;8.80;5.43;;;17.80;99.90;;;;;;10215419;29;20052;-79
2022/10/19 14:18:25;;;;;;;8.70;6.00;;;17.90;99.90;;;;;;10221118;29;20576;-79
2022/10/19 14:23:29;;;;;;;8.85;5.60;;;17.80;99.90;;;;;;10253412;29;20082;-77
2022/10/19 14:28:33;;;;;;;9.73;6.00;;;18.00;99.90;;;;;;10226962;29;20103;-79
2022/10/19 14:33:40;;;;;;;8.63;5.22;;;18.00;99.90;;;;;;10223547;29;20075;-78
2022/10/19 14:38:43;;;;;;;8.23;5.07;;;18.20;99.90;;;;;;10213508;29;20087;-79
2022/10/19 14:43:46;;;;;;;9.60;5.20;;;18.30;99.90;;;;;;10213064;29;20086;-79
2022/10/19 14:48:50;;;;;;;7.82;4.82;;;18.30;99.90;;;;;;10212077;29;20529;-78
2022/10/19 14:53:57;;;;;;;8.15;5.45;;;18.30;99.90;;;;;;10212587;29;20086;-79
2022/10/19 14:59:04;;;;;;;7.70;5.28;;;18.30;99.90;;;;;;10211744;29;20094;-77
2022/10/19 15:04:06;;;;;;;12.48;4.80;;;18.40;99.90;;;;;;10213587;29;20540;-74
2022/10/19 15:09:21;;;;;;;6.13;4.20;;;18.50;99.90;;;;;;10214429;29;20078;-75
2022/10/19 15:14:30;;;;;;;6.97;4.68;;;19.90;99.90;;;;;;10252101;29;20110;-78
2022/10/19 15:19:40;;;;;;;6.65;4.57;;;19.90;99.90;;;;;;10212248;29;20086;-77
2022/10/19 15:24:58;;;;;;;7.57;4.15;;;19.80;99.90;;;;;;10230726;29;20051;-76
2022/10/19 15:30:04;;;;;;;;;;;19.70;99.90;;;;;;10246113;29;20047;-78
2022/10/19 15:35:11;;;;;;;8.70;4.15;;;19.50;99.90;;;;;;10251364;29;19922;-78
2022/10/19 15:40:21;;;;;;;7.20;4.25;;;19.20;99.90;;;;;;10249186;29;20067;-76
2022/10/19 15:45:34;;;;;;;7.78;4.00;;;19.00;99.90;;;;;;10253715;29;20114;-79
2022/10/19 15:50:40;;;;;;;7.55;3.50;;;18.90;99.90;;;;;;10237071;29;20047;-79
2022/10/19 15:55:42;;;;;;;7.32;4.00;;;18.70;99.90;;;;;;10255213;29;20107;-76
2022/10/19 16:00:45;;;;;;;7.47;3.90;;;18.50;99.90;;;;;;10259922;29;20113;-78
2022/10/19 16:05:47;;;;;;;7.35;3.83;;;18.40;99.90;;;;;;10247292;28;20158;-77
2022/10/19 16:10:49;;;;;;;7.55;4.15;;;18.20;99.90;;;;;;10239837;29;20051;-76
2022/10/19 16:16:00;;;;;;;8.20;4.40;;;18.10;99.90;;;;;;10211736;29;20075;-77
2022/10/19 16:21:02;;;;;;;9.93;4.40;;;17.90;99.90;;;;;;10206859;29;20061;-77
2022/10/19 16:26:04;;;;;;;12.00;4.50;;;17.80;99.90;;;;;;10204524;29;20809;-77
2022/10/19 16:31:08;;;;;;;6.82;4.20;;;17.70;99.90;;;;;;10234950;29;20075;-77
2022/10/19 16:36:10;;;;;;;7.53;4.25;;;17.60;99.90;;;;;;10248995;29;20059;-77
2022/10/19 16:41:12;;;;;;;10.85;4.47;;;17.50;99.90;;;;;;10229053;29;20051;-77
2022/10/19 16:46:20;;;;;;;9.93;4.43;;;17.40;99.90;;;;;;10212288;29;20155;-76
2022/10/19 16:51:36;;;;;;;9.52;4.40;;;17.30;99.90;;;;;;10234120;29;20079;-75
2022/10/19 16:56:44;;;;;;;9.65;4.13;;;17.20;99.90;;;;;;10237489;29;20052;-78
2022/10/19 17:01:47;;;;;;;7.72;4.13;;;17.10;99.90;;;;;;10215097;29;20043;-78
2022/10/19 17:06:49;;;;;;;10.80;4.80;;;17.10;99.90;;;;;;10248347;29;20203;-77
2022/10/19 17:11:51;;;;;;;8.52;4.63;;;17.00;99.90;;;;;;10229160;29;20489;-76
2022/10/19 17:16:55;;;;;;;10.68;4.15;;;17.00;99.90;;;;;;10224462;28;20059;-78
2022/10/19 17:21:57;;;;;;;7.68;4.50;;;16.90;99.90;;;;;;10221507;29;20048;-77
2022/10/19 17:27:02;;;;;;;10.43;4.22;;;16.90;99.90;;;;;;10227411;29;20143;-76
2022/10/19 17:32:06;;;;;;;14.02;4.70;;;16.80;99.90;;;;;;10218319;29;20102;-76
2022/10/19 17:37:08;;;;;;;7.80;4.53;;;16.80;99.90;;;;;;10237230;29;20082;-77
2022/10/19 17:42:10;;;;;;;10.27;4.40;;;16.70;99.90;;;;;;10218593;29;20063;-76
2022/10/19 17:47:15;;;;;;;10.45;4.97;;;16.70;99.90;;;;;;10224447;29;20503;-78
2022/10/19 17:52:17;;;;;;;8.52;4.80;;;16.80;99.90;;;;;;10220710;29;20086;-78
2022/10/19 17:57:19;;;;;;;8.00;4.47;;;16.70;99.90;;;;;;10233926;29;20054;-77
2022/10/19 18:02:24;;;;;;;8.43;4.45;;;16.60;99.90;;;;;;10218126;29;20087;-77
2022/10/19 18:07:26;;;;;;;9.88;4.38;;;16.60;99.90;;;;;;10231632;29;20083;-76
2022/10/19 18:12:28;;;;;;;9.80;4.53;;;16.50;99.90;;;;;;10216110;29;20060;-77
2022/10/19 18:17:32;;;;;;;12.05;5.05;;;16.40;99.90;;;;;;10215026;29;20093;-78
2022/10/19 18:22:37;;;;;;;9.13;5.22;;;16.20;99.90;;;;;;10231051;29;20050;-75
2022/10/19 18:27:41;;;;;;;11.40;4.90;;;16.20;99.90;;;;;;10249229;28;20079;-76
2022/10/19 18:32:49;;;;;;;10.75;5.22;;;16.20;99.90;;;;;;10225102;29;20047;-76
2022/10/19 18:37:50;;;;;;;10.40;5.63;;;16.10;99.90;;;;;;10243116;29;20051;-75
2022/10/19 18:42:52;;;;;;;10.32;5.35;;;16.00;99.90;;;;;;10252982;29;20204;-77
2022/10/19 18:47:56;;;;;;;8.75;5.40;;;15.90;99.90;;;;;;10228040;29;20086;-77
2022/10/19 18:52:59;;;;;;;10.32;5.80;;;15.90;99.90;;;;;;10236781;29;20078;-76
2022/10/19 18:58:02;;;;;;;7.25;5.18;;;15.90;99.90;;;;;;10227335;29;20082;-75
2022/10/19 19:03:05;;;;;;;11.30;4.97;;;15.90;99.90;;;;;;10224737;29;20051;-76
2022/10/19 19:08:07;;;;;;;10.88;5.05;;;15.90;99.90;;;;;;10233539;29;20055;-75
2022/10/19 19:13:09;;;;;;;11.43;5.07;;;15.80;99.90;;;;;;10214599;29;20047;-76
2022/10/19 19:18:12;;;;;;;9.52;6.22;;;15.70;99.90;;;;;;10232443;29;20058;-75
2022/10/19 19:23:14;;;;;;;10.57;5.80;;;15.70;99.90;;;;;;10214978;29;20656;-74
2022/10/19 19:28:16;;;;;;;12.98;5.38;;;15.60;99.90;;;;;;10218320;29;20055;-75
2022/10/19 19:33:19;;;;;;;11.05;5.32;;;15.50;99.90;;;;;;10216506;29;20103;-76
2022/10/19 19:38:22;;;;;;;11.80;5.25;;;15.50;99.90;;;;;;10232390;29;20059;-77
2022/10/19 19:43:24;;;;;;;9.05;6.15;;;15.50;99.90;;;;;;10238338;29;20559;-75
2022/10/19 19:48:27;;;;;;;16.17;6.53;;;15.50;99.90;;;;;;10245950;29;20043;-76
2022/10/19 19:53:29;;;;;;;11.13;7.40;;;15.30;99.90;;;;;;10227562;29;20051;-76
2022/10/19 19:58:31;;;;;;;12.65;6.00;;;15.20;99.90;;;;;;10226319;29;20064;-74
2022/10/19 20:03:34;;;;;;;10.07;6.50;;;15.30;99.90;;;;;;10239074;29;20051;-76
2022/10/19 20:08:37;;;;;;;13.00;6.82;;;15.20;99.90;;;;;;10251725;29;20519;-76
2022/10/19 20:13:39;;;;;;;9.10;7.30;;;15.20;99.90;;;;;;10246937;29;20052;-76
2022/10/19 20:18:46;;;;;;;12.25;7.88;;;15.10;99.90;;;;;;10256364;29;20106;-75
2022/10/19 20:23:48;;;;;;;13.15;8.02;;;15.00;99.90;;;;;;10260141;29;20058;-74
2022/10/19 20:28:51;;;;;;;15.75;8.25;;;14.90;99.90;;;;;;10253533;29;20441;-74
2022/10/19 20:33:54;;;;;;;10.23;7.70;;;14.90;99.90;;;;;;10252531;29;20047;-75
2022/10/19 20:38:57;;;;;;;12.02;7.13;;;14.80;99.90;;;;;;10225558;29;20093;-74
2022/10/19 20:43:59;;;;;;;13.07;6.60;;;14.70;99.90;;;;;;10254265;29;20055;-76
2022/10/19 20:49:06;;;;;;;16.33;7.10;;;14.70;99.90;;;;;;10253498;28;20055;-73
2022/10/19 20:54:11;;;;;;;10.38;7.20;;;14.60;99.90;;;;;;10257812;29;20102;-74
2022/10/19 20:59:15;;;;;;;19.73;8.85;;;14.50;99.90;;;;;;10255970;29;20147;-75
2022/10/19 21:04:19;;;;;;;11.52;7.82;;;14.50;99.90;;;;;;10246570;29;20047;-74
2022/10/19 21:09:24;;;;;;;10.57;7.63;;;14.50;99.90;;;;;;10257259;29;20050;-75
2022/10/19 21:14:28;;;;;;;12.20;7.60;;;14.20;99.90;;;;;;10256138;29;20141;-74
2022/10/19 21:19:32;;;;;;;11.65;7.70;;;14.10;99.90;;;;;;10250767;29;20055;-73
2022/10/19 21:24:36;;;;;;;18.00;9.82;;;14.10;99.90;;;;;;10216183;29;20074;-76
2022/10/19 21:29:38;;;;;;;13.45;8.35;;;14.20;99.90;;;;;;10221271;29;20039;-75
2022/10/19 21:34:41;;;;;;;15.13;8.55;;;14.30;99.90;;;;;;10259743;29;20054;-75
2022/10/19 21:39:43;;;;;;;13.90;8.90;;;14.30;99.90;;;;;;10272682;29;20055;-75
2022/10/19 21:44:45;;;;;;;18.08;9.30;;;14.30;99.90;;;;;;10254035;29;20110;-75
2022/10/19 21:49:48;;;;;;;14.07;9.40;;;14.20;99.90;;;;;;10249593;29;20401;-77
2022/10/19 21:54:50;;;;;;;16.33;8.38;;;14.20;99.90;;;;;;10228027;29;20052;-77
2022/10/19 21:59:52;;;;;;;14.07;9.32;;;14.20;99.90;;;;;;10260209;28;20055;-75
